createdAt,value
2023-05-14T00:07:34.824Z,71.7
2023-05-14T00:23:08.960Z,71.7
2023-05-14T00:38:43.024Z,72.8
2023-05-14T00:54:17.772Z,74.8
2023-05-14T01:09:51.860Z,76.6
2023-05-14T01:25:25.965Z,77.3
2023-05-14T01:41:00.028Z,78.4
2023-05-14T01:56:34.208Z,79
2023-05-14T02:12:08.286Z,79.7
2023-05-14T02:27:42.386Z,79.6
2023-05-14T02:43:17.382Z,80.4
2023-05-14T02:58:56.027Z,81.4
2023-05-14T03:14:31.100Z,81.8
2023-05-14T03:30:05.159Z,81.7
2023-05-14T03:45:39.214Z,81.5
2023-05-14T04:01:13.245Z,82.8
2023-05-14T04:16:47.709Z,83.3
2023-05-14T04:32:22.068Z,81.7
2023-05-14T04:47:56.605Z,77.3
2023-05-14T05:03:31.018Z,75.9
2023-05-14T05:19:05.521Z,75.2
2023-05-14T05:34:40.159Z,74.6
2023-05-14T05:50:14.576Z,74
2023-05-14T06:05:49.126Z,71.2
2023-05-14T06:21:23.477Z,68.3
2023-05-14T06:36:57.679Z,67.5
2023-05-14T06:52:31.814Z,66.8
2023-05-14T07:08:05.945Z,60.7
2023-05-14T07:23:40.040Z,58.5
2023-05-14T07:39:14.265Z,57.1
2023-05-14T07:54:51.360Z,54
2023-05-14T08:10:26.715Z,52.7
2023-05-14T08:26:01.930Z,49.5
2023-05-14T08:41:36.306Z,48.9
2023-05-14T08:57:10.634Z,49.4
2023-05-14T09:12:44.883Z,48.7
2023-05-14T09:28:19.135Z,48.6
2023-05-14T09:43:53.429Z,45.6
2023-05-14T09:59:27.748Z,45.9
2023-05-14T10:15:01.787Z,43.7
2023-05-14T10:30:36.002Z,44.5
2023-05-14T10:46:10.346Z,46.6
2023-05-14T11:01:44.736Z,43.6
2023-05-14T11:17:19.299Z,44.7
2023-05-14T11:32:53.893Z,44.5
2023-05-14T11:48:28.325Z,41.9
2023-05-14T12:04:03.164Z,48.6
2023-05-14T12:19:37.644Z,48.4
2023-05-14T12:35:11.819Z,47.3
